• Join FlightAware (Why Join?)
  • Login
  • US Flag 
12:33PM EDT


 

Airport Tracker/Info


-or-


 

Live Flight TrackerFlight Track Log ✈ EJA982 ✈ 19-May-2013 ✈ KCHO - KBHM

Flight Track Log - Related Links

Times and Time Zones

All times are in EDT time to prevent confusion due to time zone crossing. See the EJA982 flight status page for this flight to view local times or setup timezone preferences in your user account.

Time Position Orientation Groundspeed Altitude Reporting Facility
EDT Latitude Longitude Course Direction KTS MPH feet Rate Location/Type
05:55PM 36.8022 -81.0922 238° Southwest  Level Estimated
05:56PM 36.7359 -81.2178 237° Southwest  Level Estimated
05:57PM 36.6695 -81.3433 237° Southwest  Level Estimated
05:58PM 36.6029 -81.4685 237° Southwest  Level Estimated
05:59PM 36.5363 -81.5935 236° Southwest  Level Estimated
06:00PM 36.4743 -81.7091 236° Southwest  Level Estimated
06:01PM 36.4123 -81.8246 236° Southwest  Level Estimated
06:02PM 36.3501 -81.9399 236° Southwest  Level Estimated
06:03PM 36.2882 -82.0543 236° Southwest  Level Estimated
06:04PM 36.2263 -82.1685 236° Southwest  Level Estimated
06:05PM 36.1652 -82.2806 236° Southwest  Level Estimated
06:06PM 36.1040 -82.3926 236° Southwest  Level Estimated
06:07PM 36.0428 -82.5044 236° Southwest  Level Estimated
06:08PM 35.9814 -82.6160 236° Southwest  Level Estimated
06:09PM 35.9204 -82.7266 236° Southwest  Level Estimated
06:10PM 35.8592 -82.8372 236° Southwest  Level Estimated
06:11PM 35.7979 -82.9475 236° Southwest  Level Estimated
06:12PM 35.7366 -83.0577 236° Southwest  Level Estimated
06:13PM 35.6751 -83.1677 236° Southwest  Level Estimated
06:14PM 35.6136 -83.2775 235° Southwest  Level Estimated
06:15PM 35.5539 -83.3837 235° Southwest  Level Estimated
06:16PM 35.4941 -83.4897 235° Southwest  Level Estimated
06:17PM 35.4342 -83.5956 235° Southwest  Level Estimated
06:18PM 35.3743 -83.7012 235° Southwest  Level Estimated
06:19PM 35.3142 -83.8068 235° Southwest  Level Estimated
06:20PM 35.2541 -83.9121 235° Southwest  Level Estimated
06:21PM 35.1938 -84.0174 235° Southwest  Level Estimated
06:22PM 35.1335 -84.1224 235° Southwest  Level Estimated
06:23PM 35.0731 -84.2273 235° Southwest  Level Estimated
06:24PM 35.0126 -84.3321 235° Southwest  Level Estimated
06:25PM 34.9520 -84.4367 235° Southwest  Level Estimated
06:26PM 34.8913 -84.5411 235° Southwest  Level Estimated
06:27PM 34.8305 -84.6454 235° Southwest  Level Estimated
06:28PM 34.7696 -84.7495 235° Southwest  Level Estimated
06:29PM 34.7087 -84.8535 235° Southwest  Level Estimated
06:30PM 34.6476 -84.9573 234° Southwest  Level Estimated
06:31PM 34.5865 -85.0610 234° Southwest  Level Estimated
06:32PM 34.5253 -85.1645 234° Southwest  Level Estimated
06:33PM 34.4640 -85.2679 234° Southwest  Level Estimated
06:34PM 34.4026 -85.3711 234° Southwest  Level Estimated
06:35PM 34.3411 -85.4741 234° Southwest  Level Estimated
06:36PM 34.2795 -85.5770 234° Southwest  Level Estimated
06:37PM 34.2179 -85.6798 234° Southwest  Level Estimated
06:38PM 34.1561 -85.7824 234° Southwest  Level Estimated
06:39PM 34.0943 -85.8849 234° Southwest  Level Estimated
06:40PM 34.0324 -85.9872 234° Southwest  Level Estimated
06:41PM 33.9704 -86.0893 234° Southwest  Level Estimated
06:42PM 33.9084 -86.1914 234° Southwest  Level Estimated
06:43PM 33.8462 -86.2932 234° Southwest  Level Estimated
06:44PM 33.7840 -86.3950 234° Southwest  Level Estimated
06:45PM 33.7216 -86.4965 234° Southwest  Level Estimated
06:46PM 33.6592 -86.5979 234° Southwest  Level Estimated
06:47PM 33.5967 -86.6992 233° Southwest  Level Estimated
06:48PM 33.5639 -86.7523 233° Southwest  Level Estimated
06:49PM 33.5639 -86.7523 107° East  Level Estimated
06:50PM 33.5639 -86.7523 107° East  Level Estimated
06:51PM 33.5639 -86.7523 107° East  Level Estimated
06:52PM 33.5639 -86.7523 107° East  Level Estimated
06:53PM 33.5639 -86.7523 107° East  Level Estimated
06:54PM 33.5639 -86.7523 107° East  Level Estimated
06:55PM 33.5639 -86.7523 107° East  Level Estimated
06:56PM 33.5639 -86.7523 107° East  Level Estimated
06:57PM 33.5639 -86.7523 107° East  Level Estimated
06:58PM 33.5639 -86.7523 107° East  Level Estimated
06:59PM 33.5639 -86.7523 107° East  Level Estimated
07:00PM 33.5639 -86.7523 107° East  Level Estimated
07:01PM 33.5639 -86.7523 107° East  Level Estimated
07:02PM 33.5639 -86.7523 107° East  Level Estimated
07:03PM 33.5639 -86.7523 107° East  Level Estimated
07:04PM 33.5639 -86.7523 107° East  Level Estimated
07:05PM 33.5639 -86.7523 107° East  Level Estimated
07:06PM 33.5639 -86.7523 107° East  Level Estimated
07:07PM 33.5639 -86.7523 107° East  Level Estimated
07:08PM 33.5639 -86.7523 107° East  Level Estimated
07:09PM 33.5639 -86.7523 107° East  Level Estimated
07:10PM 33.5639 -86.7523 107° East  Level Estimated
07:11PM 33.5639 -86.7523 107° East  Level Estimated
07:12PM 33.5639 -86.7523 107° East  Level Estimated
07:13PM 33.5639 -86.7523 107° East  Level Estimated
07:14PM 33.5639 -86.7523 107° East  Level Estimated
07:15PM 33.5639 -86.7523 107° East  Level Estimated
07:16PM 33.5639 -86.7523 107° East  Level Estimated
07:17PM 33.5639 -86.7523 107° East  Level Estimated
07:18PM 33.5639 -86.7523 107° East  Level Estimated
07:19PM 33.5639 -86.7523 107° East  Level Estimated
07:20PM 33.5639 -86.7523 107° East  Level Estimated
07:21PM 33.5639 -86.7523 107° East  Level Estimated
07:22PM 33.5639 -86.7523 107° East  Level Estimated
07:23PM 33.5639 -86.7523 107° East  Level Estimated
07:24PM 33.5639 -86.7523 107° East  Level Estimated
07:25PM 33.5639 -86.7523 107° East  Level Estimated
07:26PM 33.5639 -86.7523 107° East  Level Estimated
07:27PM 33.5639 -86.7523 107° East  Level Estimated
07:28PM 33.5639 -86.7523 107° East  Level Estimated
07:29PM 33.5639 -86.7523 107° East  Level Estimated
07:30PM 33.5639 -86.7523 107° East  Level Estimated
07:31PM 33.5639 -86.7523 107° East  Level Estimated
07:32PM 33.5639 -86.7523 107° East  Level Estimated
07:33PM 33.5639 -86.7523 107° East  Level Estimated
07:34PM 33.5639 -86.7523 107° East  Level Estimated
07:35PM 33.5639 -86.7523 107° East  Level Estimated
07:36PM 33.5639 -86.7523 107° East  Level Estimated
07:37PM 33.5639 -86.7523 107° East  Level Estimated
07:38PM 33.5639 -86.7523 107° East  Level Estimated
07:39PM 33.5639 -86.7523 107° East  Level Estimated
07:40PM 33.5639 -86.7523 107° East  Level Estimated
07:41PM 33.5639 -86.7523 107° East  Level Estimated
07:42PM 33.5639 -86.7523 107° East  Level Estimated
07:43PM 33.5639 -86.7523 107° East  Level Estimated
07:44PM 33.5639 -86.7523 107° East  Level Estimated
07:45PM 33.5639 -86.7523 107° East  Level Estimated
07:46PM 33.5639 -86.7523 107° East  Level Estimated
07:47PM 33.5639 -86.7523 107° East  Level Estimated
07:48PM 33.5639 -86.7523 107° East  Level Estimated
07:49PM 33.5639 -86.7523 107° East  Level Estimated
07:50PM 33.5639 -86.7523 107° East  Level Estimated
07:51PM 33.5639 -86.7523 107° East  Level Estimated
07:52PM 33.5639 -86.7523 107° East  Level Estimated
07:53PM 33.5639 -86.7523 107° East  Level Estimated
07:54PM 33.5639 -86.7523 107° East  Level Estimated
07:55PM 33.5639 -86.7523 107° East  Level Estimated
07:56PM 33.5639 -86.7523 107° East  Level Estimated
07:57PM 33.5639 -86.7523 107° East  Level Estimated
07:58PM 33.5639 -86.7523 107° East  Level Estimated
07:59PM 33.5639 -86.7523 107° East  Level Estimated
08:00PM 33.5639 -86.7523 107° East  Level Estimated
08:01PM 33.5639 -86.7523 107° East  Level Estimated
08:02PM 33.5639 -86.7523 107° East  Level Estimated
08:03PM 33.5639 -86.7523 107° East  Level Estimated
08:04PM 33.5639 -86.7523 107° East  Level Estimated
08:05PM 33.5639 -86.7523 107° East  Level Estimated
08:06PM 33.5639 -86.7523 107° East  Level Estimated
08:07PM 33.5639 -86.7523 107° East  Level Estimated
08:08PM 33.5639 -86.7523 107° East  Level Estimated
08:09PM 33.5639 -86.7523 107° East  Level Estimated
08:10PM 33.5639 -86.7523 107° East  Level Estimated
08:11PM 33.5639 -86.7523 107° East  Level Estimated
08:12PM 33.5639 -86.7523 107° East  Level Estimated
08:13PM 33.5639 -86.7523 107° East  Level Estimated
08:14PM 33.5639 -86.7523 107° East  Level Estimated
08:15PM 33.5639 -86.7523 107° East  Level Estimated
08:16PM 33.5639 -86.7523 107° East  Level Estimated
08:17PM 33.5639 -86.7523 107° East  Level Estimated
08:18PM 33.5639 -86.7523 107° East  Level Estimated
08:19PM 33.5639 -86.7523 107° East  Level Estimated
08:20PM 33.5639 -86.7523 107° East  Level Estimated
08:21PM 33.5639 -86.7523 107° East  Level Estimated
08:22PM 33.5639 -86.7523 107° East  Level Estimated
08:23PM 33.5639 -86.7523 107° East  Level Estimated
08:24PM 33.5639 -86.7523 107° East  Level Estimated
08:25PM 33.5639 -86.7523 107° East  Level Estimated
08:26PM 33.5639 -86.7523 107° East  Level Estimated
08:27PM 33.5639 -86.7523 107° East  Level Estimated